Pagrindinis puslapis
METAR-TAF:

METAR-TAF

Oro uostai :

Kalabrijos Redžas, Italija

platuma: 38-04N, ilguma: 015-39E, Aukštis: 11 m

Dabartinis oras

Ataskaita buvo paskelbta 54 minutes, ne 21:50 UTC
Vėjas 7 kt iš Šiaurės Rytų
Temperatūra 11°C
Drėgmė 76%
Slėgis 1023 hPa
Matomumas 10 km arba daugiau
Mažai debesys ne aukštis 3000 ft

METAR: LICR 272150Z 04007KT 9999 FEW030 11/07 Q1023

Laikas: 23:44 (22:44 UTC)

Prognozė

Ataskaita buvo paskelbta 5 valandos ir 44 minutes, ne 17:00 UTC
Prognozė galioja nuo 27 metu 18 UTC su 28 metu 18 UTC
Vėjas 10 kt iš Šiaurės
Matomumas: 7000 m
Išsisklaidę debesys ne aukštis 3000 ft
Laikinai
nuo 27 metu 21 UTC su 28 metu 03 UTC
lietus
Laikinai
nuo 28 metu 09 UTC su 28 metu 15 UTC
lietus

TAF: LICR 271700Z 2718/2818 35010KT 7000 SCT030 TEMPO 2721/2803 RA TEMPO 2809/2815 RA

Orai ataskaitas ir orų prognozės (METAR, TAF).

turimą stotys yra geltonos ir raudonos taškus žemėlapyje.

Perkelti pele per norėdami pamatyti stoties vardą.

Tada spustelėkite, norėdami matyti oro stebėjimo ir prognozės.

Norėdami pakeisti žemėlapį: spustelėkite ant žalios mygtukų su juodo kryžiaus žemyn,; žalią mygtuką su brūkšneliu, jei norite nutolinti; arba žalių rodyklių gretimoms žemėlapius.


METAR-TAF: